Time;durP1;ratioP1;P1;durP2;ratioP2;P2;SDS_P1;SDS_P2;PMS_P1;PMS_P2;Temp;Humidity;BMP_temperature;BMP_pressure;BME280_temperature;BME280_humidity;BME280_pressure;Samples;Min_cycle;Max_cycle;Signal;HPM_P1;HPM_P2
2022/03/07 00:01:57;;;;;;;13.57;7.23;;;;;;;;;;5028170;28;20434;-65
2022/03/07 00:04:24;;;;;;;14.80;7.50;;;;;;;;;;5043289;28;20473;-65
2022/03/07 00:06:50;;;;;;;17.23;8.17;;;;;;;;;;5028361;28;20446;-65
2022/03/07 00:09:17;;;;;;;14.37;7.83;;;;;;;;;;5028783;28;20488;-64
2022/03/07 00:11:43;;;;;;;15.03;7.73;;;;;;;;;;5028487;28;20434;-64
2022/03/07 00:14:10;;;;;;;13.73;7.90;;;;;;;;;;5028549;28;20528;-64
2022/03/07 00:16:37;;;;;;;13.97;7.37;;;;;;;;;;5028209;28;20430;-65
2022/03/07 00:19:03;;;;;;;14.47;7.30;;;;;;;;;;5038831;28;20449;-65
2022/03/07 00:21:30;;;;;;;15.03;7.40;;;;;;;;;;5046904;28;20429;-64
2022/03/07 00:23:57;;;;;;;12.13;6.87;;;;;;;;;;5047054;28;20425;-65
2022/03/07 00:26:23;;;;;;;15.83;8.00;;;;;;;;;;5047179;28;20429;-65
2022/03/07 00:28:50;;;;;;;14.13;7.67;;;;;;;;;;5048326;28;20482;-64
2022/03/07 00:31:17;;;;;;;18.13;8.30;;;;;;;;;;5048342;28;20881;-64
2022/03/07 00:33:44;;;;;;;14.93;8.67;;;;;;;;;;5048128;28;20552;-65
2022/03/07 00:36:11;;;;;;;18.97;8.47;;;;;;;;;;5042776;28;20458;-65
2022/03/07 00:38:37;;;;;;;17.77;9.40;;;;;;;;;;5028904;28;20472;-64
2022/03/07 00:41:07;;;;;;;19.60;9.27;;;;;;;;;;5026722;28;20527;-65
2022/03/07 00:43:33;;;;;;;14.70;7.97;;;;;;;;;;5027129;28;20445;-64
2022/03/07 00:46:03;;;;;;;17.87;9.10;;;;;;;;;;5027598;28;20450;-64
2022/03/07 00:48:29;;;;;;;14.97;9.03;;;;;;;;;;5026919;28;20790;-64
2022/03/07 00:50:57;;;;;;;19.13;9.70;;;;;;;;;;5026874;28;20437;-64
2022/03/07 00:53:24;;;;;;;18.53;8.83;;;;;;;;;;5028752;28;20454;-64
2022/03/07 00:55:51;;;;;;;20.10;10.10;;;;;;;;;;5048077;28;20459;-64
2022/03/07 00:58:17;;;;;;;20.73;9.90;;;;;;;;;;5049348;28;20766;-64
2022/03/07 01:00:44;;;;;;;19.73;9.80;;;;;;;;;;5051085;28;20498;-64
2022/03/07 01:03:14;;;;;;;18.33;9.17;;;;;;;;;;5050324;28;20544;-64
2022/03/07 01:38:20;;;;;;;13.70;6.53;;;;;;;;;;5051109;28;20440;-64
2022/03/07 01:40:47;;;;;;;14.70;7.10;;;;;;;;;;5051123;28;20476;-64
2022/03/07 01:43:13;;;;;;;18.13;8.60;;;;;;;;;;5050810;28;20441;-64
2022/03/07 01:45:41;;;;;;;17.23;8.73;;;;;;;;;;5049269;28;20437;-65
2022/03/07 01:48:08;;;;;;;19.27;8.30;;;;;;;;;;5033206;28;20433;-65
2022/03/07 01:50:34;;;;;;;18.13;8.30;;;;;;;;;;5051389;28;20440;-65
2022/03/07 01:53:03;;;;;;;15.70;7.87;;;;;;;;;;5049164;28;20540;-64
2022/03/07 01:55:30;;;;;;;17.47;8.27;;;;;;;;;;5049535;28;20841;-64
2022/03/07 01:58:00;;;;;;;17.03;8.37;;;;;;;;;;5049405;28;20551;-64
2022/03/07 02:00:29;;;;;;;19.17;9.67;;;;;;;;;;5049191;28;20533;-64
2022/03/07 02:02:55;;;;;;;16.20;8.20;;;;;;;;;;5050473;28;20428;-64
2022/03/07 02:05:29;;;;;;;22.47;9.50;;;;;;;;;;5049699;28;20461;-64
2022/03/07 02:08:07;;;;;;;19.30;9.17;;;;;;;;;;5045838;28;20446;-64
2022/03/07 02:10:44;;;;;;;19.50;10.03;;;;;;;;;;5032219;28;20484;-65
2022/03/07 02:13:13;;;;;;;18.63;9.60;;;;;;;;;;5050141;28;20929;-64
2022/03/07 02:15:42;;;;;;;20.50;10.50;;;;;;;;;;5048725;28;20468;-65
2022/03/07 02:18:09;;;;;;;21.20;9.57;;;;;;;;;;5049077;28;20524;-64
2022/03/07 02:20:36;;;;;;;22.43;9.70;;;;;;;;;;5050754;28;20754;-64
2022/03/07 02:23:03;;;;;;;17.60;10.03;;;;;;;;;;5048906;28;20418;-65
2022/03/07 02:25:29;;;;;;;20.20;9.67;;;;;;;;;;5048797;28;20529;-65
2022/03/07 02:27:56;;;;;;;17.33;9.90;;;;;;;;;;5050018;28;20421;-65
2022/03/07 02:30:23;;;;;;;19.23;10.13;;;;;;;;;;5049687;28;20434;-65
2022/03/07 02:32:51;;;;;;;19.93;9.50;;;;;;;;;;5048944;28;21032;-65
2022/03/07 02:35:18;;;;;;;17.17;9.47;;;;;;;;;;5049163;28;20580;-64
2022/03/07 02:37:44;;;;;;;16.70;9.23;;;;;;;;;;5048391;28;20453;-65
2022/03/07 02:40:11;;;;;;;19.37;9.90;;;;;;;;;;5064855;28;20949;-65
2022/03/07 02:42:55;;;;;;;16.80;9.10;;;;;;;;;;5049086;28;20445;-65
2022/03/07 02:45:22;;;;;;;16.57;9.23;;;;;;;;;;5051121;28;20795;-65
2022/03/07 02:47:48;;;;;;;14.17;8.90;;;;;;;;;;5048953;28;20442;-65
2022/03/07 02:50:15;;;;;;;17.47;9.80;;;;;;;;;;5048449;28;20433;-64
2022/03/07 02:52:43;;;;;;;19.80;10.77;;;;;;;;;;5031943;28;20458;-65
2022/03/07 02:55:10;;;;;;;20.07;10.50;;;;;;;;;;5029783;28;20870;-65
2022/03/07 02:57:37;;;;;;;17.57;10.00;;;;;;;;;;5029535;28;20835;-64
2022/03/07 03:00:04;;;;;;;20.10;10.33;;;;;;;;;;5029276;28;20435;-65
2022/03/07 03:02:31;;;;;;;19.23;10.37;;;;;;;;;;5029814;28;20963;-65
2022/03/07 03:04:57;;;;;;;18.07;9.50;;;;;;;;;;5029501;28;20498;-65
2022/03/07 03:07:24;;;;;;;17.20;9.43;;;;;;;;;;5034136;28;20433;-65
2022/03/07 03:09:50;;;;;;;19.27;9.73;;;;;;;;;;5048984;28;21029;-65
2022/03/07 03:12:19;;;;;;;17.53;9.13;;;;;;;;;;5049356;28;20440;-65
2022/03/07 03:14:46;;;;;;;17.53;8.97;;;;;;;;;;5049194;28;20465;-65
2022/03/07 03:17:13;;;;;;;18.40;10.03;;;;;;;;;;5049044;28;20969;-65
2022/03/07 03:19:39;;;;;;;18.10;9.20;;;;;;;;;;5048964;28;20499;-65
2022/03/07 03:22:06;;;;;;;16.47;9.17;;;;;;;;;;5048494;28;20439;-65
2022/03/07 03:24:35;;;;;;;16.93;8.93;;;;;;;;;;5049024;28;20514;-65
2022/03/07 03:27:01;;;;;;;19.00;9.30;;;;;;;;;;5031774;28;21337;-65
2022/03/07 03:29:28;;;;;;;17.30;8.83;;;;;;;;;;5029298;28;20427;-65
2022/03/07 03:31:55;;;;;;;15.75;10.00;;;;;;;;;;5028573;28;20573;-65
2022/03/07 03:34:21;;;;;;;15.97;9.30;;;;;;;;;;5028549;28;20203;-65
2022/03/07 03:36:48;;;;;;;15.47;9.53;;;;;;;;;;5029198;28;20457;-65
2022/03/07 03:39:15;;;;;;;16.87;8.77;;;;;;;;;;5028955;28;20446;-65
2022/03/07 03:41:42;;;;;;;14.93;8.43;;;;;;;;;;5029065;28;20446;-65
2022/03/07 03:44:08;;;;;;;11.33;7.27;;;;;;;;;;5027794;28;20430;-65
2022/03/07 03:46:37;;;;;;;15.10;8.30;;;;;;;;;;5028579;28;20946;-65
2022/03/07 03:49:03;;;;;;;15.47;8.03;;;;;;;;;;5041821;28;20452;-65
2022/03/07 03:51:30;;;;;;;14.07;8.33;;;;;;;;;;5048747;28;20432;-65
2022/03/07 03:53:56;;;;;;;14.70;8.17;;;;;;;;;;5047400;28;20534;-65
2022/03/07 03:56:23;;;;;;;14.73;8.43;;;;;;;;;;5048638;28;20524;-65
2022/03/07 03:58:50;;;;;;;17.83;9.00;;;;;;;;;;5048649;28;20448;-65
2022/03/07 04:01:16;;;;;;;17.60;10.03;;;;;;;;;;5047220;28;20452;-65
2022/03/07 04:03:43;;;;;;;14.53;9.37;;;;;;;;;;5048288;28;20781;-65
2022/03/07 04:06:10;;;;;;;15.40;9.23;;;;;;;;;;5048462;28;20461;-65
2022/03/07 04:08:49;;;;;;;13.83;7.83;;;;;;;;;;5032051;28;20430;-65
2022/03/07 04:11:21;;;;;;;13.23;8.07;;;;;;;;;;5028590;28;20515;-65
2022/03/07 04:13:48;;;;;;;13.43;7.83;;;;;;;;;;5040750;28;20445;-65
2022/03/07 04:16:15;;;;;;;11.30;6.90;;;;;;;;;;5048351;28;20498;-65
2022/03/07 04:18:42;;;;;;;14.10;7.67;;;;;;;;;;5048181;28;21249;-65
2022/03/07 04:21:08;;;;;;;12.43;7.20;;;;;;;;;;5048525;28;20465;-65
2022/03/07 04:23:35;;;;;;;14.13;6.83;;;;;;;;;;5048761;28;20432;-65
2022/03/07 04:26:01;;;;;;;13.47;7.17;;;;;;;;;;5048266;28;20471;-65
2022/03/07 04:28:28;;;;;;;14.60;8.13;;;;;;;;;;5041568;28;20483;-66
2022/03/07 04:30:55;;;;;;;16.10;8.77;;;;;;;;;;5041259;28;20523;-65
2022/03/07 04:33:21;;;;;;;17.40;9.60;;;;;;;;;;5043335;28;20433;-66
2022/03/07 04:35:48;;;;;;;17.53;9.63;;;;;;;;;;5045866;28;20479;-68
2022/03/07 04:38:15;;;;;;;18.60;9.53;;;;;;;;;;5045831;28;20457;-67
2022/03/07 04:40:42;;;;;;;16.67;9.67;;;;;;;;;;5045895;28;20464;-66
2022/03/07 04:43:09;;;;;;;16.97;9.70;;;;;;;;;;5045221;28;20459;-66
2022/03/07 04:45:35;;;;;;;18.63;9.60;;;;;;;;;;5046539;28;20437;-66
2022/03/07 04:48:02;;;;;;;15.63;8.67;;;;;;;;;;5046059;28;20536;-66
2022/03/07 04:50:29;;;;;;;16.97;8.23;;;;;;;;;;5045228;28;20441;-66
2022/03/07 04:52:55;;;;;;;14.67;7.63;;;;;;;;;;5044274;28;20445;-67
2022/03/07 04:55:25;;;;;;;14.40;8.57;;;;;;;;;;5044408;28;20476;-65
2022/03/07 04:57:52;;;;;;;14.53;8.40;;;;;;;;;;5044202;28;20453;-66
2022/03/07 05:00:19;;;;;;;14.73;7.83;;;;;;;;;;5046354;28;20429;-66
2022/03/07 05:02:46;;;;;;;15.10;7.83;;;;;;;;;;5046356;28;20515;-65
2022/03/07 05:05:13;;;;;;;14.00;7.60;;;;;;;;;;5044353;28;21010;-65
2022/03/07 05:07:40;;;;;;;14.57;7.30;;;;;;;;;;5045571;28;20498;-65
2022/03/07 05:10:07;;;;;;;14.60;7.60;;;;;;;;;;5044873;28;20453;-65
2022/03/07 05:12:34;;;;;;;13.97;8.23;;;;;;;;;;5046761;28;20835;-64
2022/03/07 05:15:02;;;;;;;13.50;7.60;;;;;;;;;;5044697;28;20495;-65
2022/03/07 05:17:29;;;;;;;12.00;6.90;;;;;;;;;;5045227;28;20831;-65
2022/03/07 05:19:55;;;;;;;12.60;7.67;;;;;;;;;;5046256;28;20503;-65
2022/03/07 05:22:23;;;;;;;14.53;8.67;;;;;;;;;;5045359;28;20502;-65
2022/03/07 05:24:50;;;;;;;13.13;7.07;;;;;;;;;;5045982;28;20434;-65
2022/03/07 05:27:17;;;;;;;13.37;7.23;;;;;;;;;;5044577;28;20445;-64
2022/03/07 05:29:43;;;;;;;15.13;6.93;;;;;;;;;;5044901;28;20434;-64
2022/03/07 05:32:10;;;;;;;10.90;6.30;;;;;;;;;;5045298;28;20440;-64
2022/03/07 05:34:37;;;;;;;11.57;6.43;;;;;;;;;;5044883;28;20453;-64
2022/03/07 05:37:03;;;;;;;14.00;6.83;;;;;;;;;;5044301;28;20475;-65
2022/03/07 05:39:30;;;;;;;16.70;7.20;;;;;;;;;;5044414;28;20430;-65
2022/03/07 05:41:57;;;;;;;13.23;6.90;;;;;;;;;;5044594;28;20939;-65
2022/03/07 05:44:23;;;;;;;16.23;7.43;;;;;;;;;;5042383;28;20935;-65
2022/03/07 05:46:50;;;;;;;14.87;8.53;;;;;;;;;;5044345;28;20430;-65
2022/03/07 05:49:17;;;;;;;17.33;8.40;;;;;;;;;;5043982;28;20429;-65
2022/03/07 05:51:46;;;;;;;15.30;8.23;;;;;;;;;;5040591;28;20458;-65
2022/03/07 05:54:12;;;;;;;13.93;7.10;;;;;;;;;;5041155;28;20480;-65
2022/03/07 05:56:39;;;;;;;13.57;7.13;;;;;;;;;;5035239;28;21395;-65
2022/03/07 05:59:06;;;;;;;11.90;6.57;;;;;;;;;;5030164;28;20484;-65
2022/03/07 06:01:32;;;;;;;12.50;6.50;;;;;;;;;;5030561;28;20484;-65
2022/03/07 06:03:59;;;;;;;13.43;7.00;;;;;;;;;;5031495;28;20445;-65
2022/03/07 06:06:26;;;;;;;14.93;7.03;;;;;;;;;;5030387;28;20434;-65
2022/03/07 06:08:53;;;;;;;13.33;6.67;;;;;;;;;;5059193;28;20491;-65
2022/03/07 06:11:20;;;;;;;12.50;6.93;;;;;;;;;;5043413;28;20428;-65
2022/03/07 06:13:46;;;;;;;14.17;7.20;;;;;;;;;;5056759;28;20429;-65
2022/03/07 06:16:13;;;;;;;12.93;6.90;;;;;;;;;;5058037;28;20537;-65
2022/03/07 06:18:40;;;;;;;11.03;6.10;;;;;;;;;;5040821;28;20442;-65
2022/03/07 06:21:06;;;;;;;12.30;6.77;;;;;;;;;;5049026;28;20448;-65
2022/03/07 06:23:33;;;;;;;10.00;5.33;;;;;;;;;;5050632;28;20511;-65
2022/03/07 06:26:00;;;;;;;11.97;5.20;;;;;;;;;;5042043;28;20484;-65
2022/03/07 06:28:26;;;;;;;10.90;5.10;;;;;;;;;;5036211;28;20491;-65
2022/03/07 06:30:53;;;;;;;9.10;4.50;;;;;;;;;;5049114;28;20869;-65
2022/03/07 06:33:19;;;;;;;7.97;4.00;;;;;;;;;;5049817;28;20429;-65
2022/03/07 06:35:46;;;;;;;6.37;3.87;;;;;;;;;;5049055;28;20522;-66
2022/03/07 06:38:13;;;;;;;8.73;4.07;;;;;;;;;;5050020;28;20423;-66
2022/03/07 06:40:42;;;;;;;6.40;4.07;;;;;;;;;;5033025;28;20965;-66
2022/03/07 06:43:08;;;;;;;9.57;4.20;;;;;;;;;;5030033;28;20434;-66
2022/03/07 06:45:35;;;;;;;7.60;4.20;;;;;;;;;;5029744;28;20434;-66
2022/03/07 06:48:02;;;;;;;10.30;3.60;;;;;;;;;;5029182;28;20427;-66
2022/03/07 06:50:28;;;;;;;7.67;3.23;;;;;;;;;;5029958;28;20441;-66
2022/03/07 06:52:55;;;;;;;8.60;3.90;;;;;;;;;;5045109;28;20428;-66
2022/03/07 06:55:22;;;;;;;8.47;3.50;;;;;;;;;;5027196;28;21044;-66
2022/03/07 06:57:49;;;;;;;7.33;3.37;;;;;;;;;;5029605;28;20435;-66
2022/03/07 07:00:16;;;;;;;6.70;3.13;;;;;;;;;;5029279;28;20434;-67
2022/03/07 07:02:43;;;;;;;5.67;3.10;;;;;;;;;;5029595;28;20431;-67
2022/03/07 07:05:10;;;;;;;5.07;3.10;;;;;;;;;;5029290;28;20826;-68
2022/03/07 07:07:37;;;;;;;6.20;3.10;;;;;;;;;;5037751;28;20476;-64
2022/03/07 07:10:04;;;;;;;7.90;3.50;;;;;;;;;;5042191;28;20440;-65
2022/03/07 07:12:31;;;;;;;6.97;3.37;;;;;;;;;;5039123;28;20446;-64
2022/03/07 07:14:57;;;;;;;4.57;2.80;;;;;;;;;;5042725;28;20956;-66
2022/03/07 07:17:24;;;;;;;6.33;3.13;;;;;;;;;;5041210;28;20537;-66
2022/03/07 07:19:51;;;;;;;6.77;3.03;;;;;;;;;;5042743;28;20437;-66
2022/03/07 07:22:18;;;;;;;6.30;3.30;;;;;;;;;;5042230;28;20992;-66
2022/03/07 07:24:45;;;;;;;6.33;3.20;;;;;;;;;;5042632;28;20190;-66
2022/03/07 07:27:11;;;;;;;7.03;3.47;;;;;;;;;;5042248;28;20268;-66
2022/03/07 07:29:39;;;;;;;4.30;3.00;;;;;;;;;;5043415;28;20182;-65
2022/03/07 07:32:06;;;;;;;8.33;3.47;;;;;;;;;;5043339;28;20195;-64
2022/03/07 07:34:33;;;;;;;8.07;3.43;;;;;;;;;;5043840;28;20202;-67
2022/03/07 07:37:00;;;;;;;7.60;3.27;;;;;;;;;;5041695;28;20226;-66
2022/03/07 07:39:38;;;;;;;5.73;3.63;;;;;;;;;;5043126;28;20242;-66
2022/03/07 07:42:05;;;;;;;6.33;3.53;;;;;;;;;;5043067;28;20187;-68
2022/03/07 07:44:37;;;;;;;7.20;3.87;;;;;;;;;;5041960;28;20281;-67
2022/03/07 07:47:04;;;;;;;33.77;18.40;;;;;;;;;;5024841;28;20194;-67
2022/03/07 07:49:31;;;;;;;22.47;13.53;;;;;;;;;;5042868;28;20312;-68
2022/03/07 07:51:59;;;;;;;29.33;15.53;;;;;;;;;;5042956;28;20516;-66
2022/03/07 07:54:25;;;;;;;9.27;5.27;;;;;;;;;;5042807;28;20193;-65
2022/03/07 07:56:52;;;;;;;9.30;5.57;;;;;;;;;;5042847;28;20268;-66
2022/03/07 07:59:19;;;;;;;17.37;9.93;;;;;;;;;;5042561;28;20186;-66
2022/03/07 08:01:46;;;;;;;10.17;6.23;;;;;;;;;;5041488;28;20205;-67
2022/03/07 08:04:13;;;;;;;5.60;3.03;;;;;;;;;;5044392;28;20632;-66
2022/03/07 08:06:40;;;;;;;4.97;3.07;;;;;;;;;;5042989;28;20862;-66
2022/03/07 08:09:06;;;;;;;6.70;3.13;;;;;;;;;;5043354;28;20191;-65
2022/03/07 08:11:33;;;;;;;5.33;3.33;;;;;;;;;;5041298;28;20234;-64
2022/03/07 08:14:00;;;;;;;4.67;2.10;;;;;;;;;;5041339;28;21406;-65
2022/03/07 08:16:26;;;;;;;3.93;2.07;;;;;;;;;;5041677;28;20218;-64
2022/03/07 08:18:53;;;;;;;4.53;2.33;;;;;;;;;;5057056;28;20187;-66
2022/03/07 08:21:25;;;;;;;4.57;2.20;;;;;;;;;;5042142;28;20240;-67
2022/03/07 08:23:53;;;;;;;3.47;2.00;;;;;;;;;;5042077;28;20194;-67
2022/03/07 08:26:20;;;;;;;5.13;2.03;;;;;;;;;;5041968;28;20207;-68
2022/03/07 08:28:47;;;;;;;3.80;2.07;;;;;;;;;;5041328;28;20658;-68
2022/03/07 08:31:14;;;;;;;5.77;2.10;;;;;;;;;;5039927;28;20213;-66
2022/03/07 08:33:43;;;;;;;4.07;2.07;;;;;;;;;;5042512;28;20904;-65
2022/03/07 08:36:10;;;;;;;6.20;2.10;;;;;;;;;;5040787;28;20218;-67
2022/03/07 08:38:37;;;;;;;5.23;2.23;;;;;;;;;;5039712;28;20256;-67
2022/03/07 08:41:03;;;;;;;4.27;2.30;;;;;;;;;;5038854;28;20194;-67
2022/03/07 08:43:30;;;;;;;4.83;2.23;;;;;;;;;;5042129;28;20191;-67
2022/03/07 08:45:57;;;;;;;7.17;2.10;;;;;;;;;;5040070;28;20233;-67
2022/03/07 08:48:24;;;;;;;4.33;1.50;;;;;;;;;;5038076;28;20190;-66
2022/03/07 08:50:53;;;;;;;3.03;1.33;;;;;;;;;;5039792;28;20187;-66
2022/03/07 08:53:20;;;;;;;3.27;1.50;;;;;;;;;;5041245;28;20203;-66
2022/03/07 08:55:46;;;;;;;2.93;1.57;;;;;;;;;;5040514;28;20300;-66
2022/03/07 08:58:33;;;;;;;5.67;1.80;;;;;;;;;;5040030;28;20590;-65
2022/03/07 09:00:59;;;;;;;4.43;2.00;;;;;;;;;;5039204;28;20210;-65
2022/03/07 09:03:26;;;;;;;3.70;1.70;;;;;;;;;;5042478;28;20195;-66
2022/03/07 09:05:53;;;;;;;4.23;1.60;;;;;;;;;;5039305;28;20797;-68
2022/03/07 09:08:20;;;;;;;3.97;1.87;;;;;;;;;;5039059;28;20202;-66
2022/03/07 09:10:47;;;;;;;3.83;1.30;;;;;;;;;;5040849;28;20240;-67
2022/03/07 09:13:14;;;;;;;4.90;1.50;;;;;;;;;;5042668;28;20206;-68
2022/03/07 09:15:42;;;;;;;6.90;1.50;;;;;;;;;;5041512;28;20211;-67
2022/03/07 09:18:10;;;;;;;2.30;1.50;;;;;;;;;;5040247;28;20206;-67
2022/03/07 09:20:36;;;;;;;5.60;2.40;;;;;;;;;;5042496;28;20512;-71
2022/03/07 09:23:03;;;;;;;5.67;2.13;;;;;;;;;;5044567;28;20210;-67
2022/03/07 09:25:30;;;;;;;6.43;2.40;;;;;;;;;;5046068;28;20512;-67
2022/03/07 09:27:57;;;;;;;5.70;2.10;;;;;;;;;;5043727;28;20212;-67
2022/03/07 09:30:24;;;;;;;5.23;2.00;;;;;;;;;;5045682;28;20210;-69
2022/03/07 09:32:52;;;;;;;7.10;3.50;;;;;;;;;;5044600;28;20272;-71
2022/03/07 09:35:18;;;;;;;9.00;4.13;;;;;;;;;;5045590;28;20209;-68
2022/03/07 09:37:46;;;;;;;10.00;3.57;;;;;;;;;;5044296;28;20183;-68
2022/03/07 09:40:13;;;;;;;12.47;5.27;;;;;;;;;;5043388;28;20211;-71
2022/03/07 09:42:40;;;;;;;12.63;5.20;;;;;;;;;;5044624;28;20824;-72
2022/03/07 09:45:09;;;;;;;8.73;3.83;;;;;;;;;;5044597;28;20721;-70
2022/03/07 09:47:38;;;;;;;6.87;3.67;;;;;;;;;;5044422;28;20195;-69
2022/03/07 09:50:06;;;;;;;6.80;3.50;;;;;;;;;;5044785;28;20191;-67
2022/03/07 09:52:33;;;;;;;5.50;2.30;;;;;;;;;;5044729;28;20191;-68
2022/03/07 09:55:00;;;;;;;5.83;2.30;;;;;;;;;;5044268;28;20201;-68
2022/03/07 09:57:27;;;;;;;5.20;1.77;;;;;;;;;;5043031;28;20245;-69
2022/03/07 09:59:53;;;;;;;3.90;1.40;;;;;;;;;;5045346;28;20236;-66
2022/03/07 10:02:24;;;;;;;3.13;1.10;;;;;;;;;;5045269;28;20256;-69
2022/03/07 10:04:51;;;;;;;3.00;0.97;;;;;;;;;;5044220;28;20222;-69
2022/03/07 10:07:18;;;;;;;3.43;1.50;;;;;;;;;;5042495;28;20661;-68
2022/03/07 10:09:46;;;;;;;6.40;1.30;;;;;;;;;;5044559;28;20227;-72
2022/03/07 10:12:13;;;;;;;3.00;1.20;;;;;;;;;;5042188;28;20193;-72
2022/03/07 10:14:46;;;;;;;3.83;1.37;;;;;;;;;;5030758;28;20346;-65
2022/03/07 10:17:18;;;;;;;4.87;1.30;;;;;;;;;;5042245;28;20309;-70
2022/03/07 10:19:45;;;;;;;3.33;1.13;;;;;;;;;;5044363;28;20257;-67
2022/03/07 10:22:19;;;;;;;3.33;1.30;;;;;;;;;;5043842;28;20203;-68
2022/03/07 10:24:46;;;;;;;4.80;1.00;;;;;;;;;;5044490;28;20361;-67
2022/03/07 10:27:23;;;;;;;2.93;1.00;;;;;;;;;;5042973;28;20876;-68
2022/03/07 10:29:50;;;;;;;2.77;0.80;;;;;;;;;;5043746;28;20198;-65
2022/03/07 10:32:17;;;;;;;4.33;0.93;;;;;;;;;;5044974;28;20282;-68
2022/03/07 10:34:44;;;;;;;4.40;1.00;;;;;;;;;;5043012;28;20278;-65
2022/03/07 10:37:12;;;;;;;2.03;1.10;;;;;;;;;;5043440;28;20249;-70
2022/03/07 10:39:45;;;;;;;2.50;1.00;;;;;;;;;;5043451;28;20195;-66
2022/03/07 10:42:15;;;;;;;3.60;1.00;;;;;;;;;;5042203;28;20218;-66
2022/03/07 10:44:42;;;;;;;2.73;0.83;;;;;;;;;;5043452;28;20187;-66
2022/03/07 10:47:11;;;;;;;5.07;1.10;;;;;;;;;;5044682;28;20194;-66
2022/03/07 10:49:51;;;;;;;2.73;1.40;;;;;;;;;;5044445;28;20236;-65
2022/03/07 10:52:19;;;;;;;2.33;0.90;;;;;;;;;;5040737;28;20194;-68
2022/03/07 10:54:47;;;;;;;4.13;1.03;;;;;;;;;;5042388;28;20182;-66
2022/03/07 10:57:14;;;;;;;4.10;1.13;;;;;;;;;;5043648;28;20219;-66
2022/03/07 10:59:41;;;;;;;4.03;0.63;;;;;;;;;;5044648;28;20190;-66
2022/03/07 11:02:11;;;;;;;2.93;1.13;;;;;;;;;;5044316;28;20197;-65
2022/03/07 11:04:38;;;;;;;3.57;0.90;;;;;;;;;;5044235;28;20230;-68
2022/03/07 11:07:05;;;;;;;5.03;0.80;;;;;;;;;;5042746;28;20247;-69
2022/03/07 11:09:32;;;;;;;2.83;0.80;;;;;;;;;;5044297;28;20270;-67
2022/03/07 11:11:59;;;;;;;2.10;0.70;;;;;;;;;;5043487;28;20195;-69
2022/03/07 11:14:27;;;;;;;4.17;0.93;;;;;;;;;;5041607;28;20245;-68
2022/03/07 11:16:56;;;;;;;3.17;0.80;;;;;;;;;;5058306;28;20724;-67
2022/03/07 11:19:26;;;;;;;3.40;0.90;;;;;;;;;;5042023;28;20313;-67
2022/03/07 11:21:53;;;;;;;3.17;0.80;;;;;;;;;;5041278;28;20190;-67
2022/03/07 11:24:21;;;;;;;1.93;0.70;;;;;;;;;;5042154;28;20198;-69
2022/03/07 11:26:48;;;;;;;3.97;1.27;;;;;;;;;;5043266;28;20186;-71
2022/03/07 11:29:16;;;;;;;3.03;1.00;;;;;;;;;;5025075;28;20194;-69
2022/03/07 11:31:43;;;;;;;4.83;1.10;;;;;;;;;;5041136;28;20877;-69
2022/03/07 11:34:11;;;;;;;2.77;1.20;;;;;;;;;;5042151;28;20183;-70
2022/03/07 11:36:42;;;;;;;3.13;0.97;;;;;;;;;;5041084;28;20210;-67
2022/03/07 11:39:09;;;;;;;3.83;1.00;;;;;;;;;;5042214;28;20205;-68
2022/03/07 11:41:37;;;;;;;3.30;1.00;;;;;;;;;;5040992;28;20183;-68
2022/03/07 11:44:04;;;;;;;1.77;0.80;;;;;;;;;;5040945;28;20318;-69
2022/03/07 11:46:32;;;;;;;2.67;0.90;;;;;;;;;;5040438;28;20183;-67
2022/03/07 11:48:59;;;;;;;2.27;0.97;;;;;;;;;;5042459;28;20960;-67
2022/03/07 11:51:27;;;;;;;1.97;0.83;;;;;;;;;;5041124;28;20179;-66
2022/03/07 11:53:54;;;;;;;3.03;0.70;;;;;;;;;;5042453;28;20224;-68
2022/03/07 11:56:22;;;;;;;2.83;0.80;;;;;;;;;;5042443;28;20198;-67
2022/03/07 11:58:54;;;;;;;2.23;0.70;;;;;;;;;;5024465;28;20214;-66
2022/03/07 12:01:26;;;;;;;2.37;1.00;;;;;;;;;;5026323;28;20305;-65
2022/03/07 12:03:53;;;;;;;3.30;0.90;;;;;;;;;;5040353;28;20191;-65
2022/03/07 12:06:22;;;;;;;9.00;1.63;;;;;;;;;;5043136;28;20919;-67
2022/03/07 12:08:52;;;;;;;2.83;0.83;;;;;;;;;;5042275;28;20318;-68
2022/03/07 12:11:23;;;;;;;3.17;0.70;;;;;;;;;;5040788;28;20523;-67
2022/03/07 12:13:50;;;;;;;3.67;0.80;;;;;;;;;;5039412;28;20187;-67
2022/03/07 12:16:30;;;;;;;5.27;1.13;;;;;;;;;;5040476;28;20213;-67
2022/03/07 12:19:13;;;;;;;1.43;0.60;;;;;;;;;;5041718;28;20213;-67
2022/03/07 12:21:41;;;;;;;3.23;0.90;;;;;;;;;;5040238;28;20186;-66
2022/03/07 12:24:08;;;;;;;4.37;0.90;;;;;;;;;;5041840;28;20473;-68
2022/03/07 12:26:45;;;;;;;4.43;1.47;;;;;;;;;;5040835;28;20237;-67
2022/03/07 12:29:11;;;;;;;3.97;0.93;;;;;;;;;;5039620;28;20204;-67
2022/03/07 12:31:38;;;;;;;4.40;1.00;;;;;;;;;;5040100;28;20195;-68
2022/03/07 12:34:07;;;;;;;6.23;1.20;;;;;;;;;;5040906;28;20195;-66
2022/03/07 12:36:34;;;;;;;3.23;0.63;;;;;;;;;;5042352;28;20566;-68
2022/03/07 12:39:01;;;;;;;3.57;1.07;;;;;;;;;;5039667;28;20240;-69
2022/03/07 12:41:28;;;;;;;4.47;0.90;;;;;;;;;;5042993;28;20202;-68
2022/03/07 12:43:55;;;;;;;3.50;0.80;;;;;;;;;;5042598;28;20187;-66
2022/03/07 12:46:22;;;;;;;2.50;0.90;;;;;;;;;;5040694;28;20746;-70
2022/03/07 12:48:50;;;;;;;2.33;0.80;;;;;;;;;;5040011;28;20214;-70
2022/03/07 12:51:18;;;;;;;3.23;0.90;;;;;;;;;;5024466;28;20231;-70
2022/03/07 12:53:56;;;;;;;4.50;1.03;;;;;;;;;;5043418;28;20260;-68
2022/03/07 12:56:42;;;;;;;2.03;0.73;;;;;;;;;;5050731;28;20191;-68
2022/03/07 12:59:09;;;;;;;3.20;0.93;;;;;;;;;;5050760;28;20209;-68
2022/03/07 13:01:38;;;;;;;3.17;0.90;;;;;;;;;;5050297;28;20745;-68
2022/03/07 13:04:14;;;;;;;2.13;0.73;;;;;;;;;;5037060;28;20188;-68
2022/03/07 13:06:45;;;;;;;5.67;1.20;;;;;;;;;;5032113;28;20712;-70
2022/03/07 13:09:12;;;;;;;9.40;1.10;;;;;;;;;;5038898;28;20191;-67
2022/03/07 13:11:41;;;;;;;4.93;1.07;;;;;;;;;;5051443;28;20270;-68
2022/03/07 13:14:17;;;;;;;3.80;1.10;;;;;;;;;;5049941;28;20252;-68
2022/03/07 13:16:44;;;;;;;4.63;1.20;;;;;;;;;;5049813;28;20689;-68
2022/03/07 13:19:11;;;;;;;4.70;1.07;;;;;;;;;;5050371;28;20588;-67
2022/03/07 13:21:39;;;;;;;5.90;1.00;;;;;;;;;;5051316;28;20214;-68
2022/03/07 13:24:06;;;;;;;3.03;1.10;;;;;;;;;;5050104;28;20190;-68
2022/03/07 13:26:34;;;;;;;4.03;1.13;;;;;;;;;;5040212;28;20561;-67
2022/03/07 13:29:09;;;;;;;3.00;1.00;;;;;;;;;;5045574;28;20207;-67
2022/03/07 13:31:40;;;;;;;4.07;1.40;;;;;;;;;;5043650;28;20198;-68
2022/03/07 13:34:07;;;;;;;5.00;1.50;;;;;;;;;;5045088;28;20198;-68
2022/03/07 13:36:41;;;;;;;4.73;1.40;;;;;;;;;;5043332;28;20226;-69
2022/03/07 13:39:21;;;;;;;3.47;1.00;;;;;;;;;;5044605;28;20642;-68
2022/03/07 13:41:52;;;;;;;4.90;1.33;;;;;;;;;;5043997;28;20198;-68
2022/03/07 13:44:22;;;;;;;3.93;1.10;;;;;;;;;;5046164;28;20214;-68
2022/03/07 13:46:50;;;;;;;3.40;1.20;;;;;;;;;;5045346;28;20217;-68
2022/03/07 13:49:17;;;;;;;5.43;1.80;;;;;;;;;;5044558;28;20577;-67
2022/03/07 13:51:46;;;;;;;4.40;1.40;;;;;;;;;;5045477;28;20186;-68
2022/03/07 13:54:13;;;;;;;6.67;2.10;;;;;;;;;;5044100;28;20278;-69
2022/03/07 13:56:40;;;;;;;5.87;1.57;;;;;;;;;;5042962;28;20768;-72
2022/03/07 13:59:15;;;;;;;3.83;1.53;;;;;;;;;;5045355;28;20209;-68
2022/03/07 14:01:42;;;;;;;1.87;1.10;;;;;;;;;;5042377;28;20213;-68
2022/03/07 14:04:13;;;;;;;6.27;1.50;;;;;;;;;;5043349;28;20187;-68
2022/03/07 14:06:43;;;;;;;3.47;1.10;;;;;;;;;;5042572;28;20249;-68
2022/03/07 14:09:30;;;;;;;5.63;1.40;;;;;;;;;;5031881;28;20260;-67
2022/03/07 14:12:00;;;;;;;3.10;1.30;;;;;;;;;;5027478;28;20549;-68
2022/03/07 14:14:27;;;;;;;4.03;0.87;;;;;;;;;;5043070;28;20191;-67
2022/03/07 14:16:55;;;;;;;2.87;1.20;;;;;;;;;;5044231;28;20210;-68
2022/03/07 14:19:22;;;;;;;4.63;1.20;;;;;;;;;;5042376;28;20701;-66
2022/03/07 14:21:51;;;;;;;3.17;1.30;;;;;;;;;;5040600;28;20198;-68
2022/03/07 14:24:18;;;;;;;4.10;1.63;;;;;;;;;;5043438;28;20303;-69
2022/03/07 14:26:47;;;;;;;5.27;1.43;;;;;;;;;;5044545;28;20187;-68
2022/03/07 14:29:15;;;;;;;4.60;1.20;;;;;;;;;;5043016;28;20226;-69
2022/03/07 14:31:41;;;;;;;4.83;1.30;;;;;;;;;;5042927;28;20252;-68
2022/03/07 14:34:08;;;;;;;5.03;1.10;;;;;;;;;;5044188;28;20232;-67
2022/03/07 14:36:37;;;;;;;6.20;1.10;;;;;;;;;;5048192;28;20179;-67
2022/03/07 14:39:07;;;;;;;4.87;1.13;;;;;;;;;;5040003;28;20190;-66
2022/03/07 14:41:35;;;;;;;3.93;1.30;;;;;;;;;;5057781;28;20550;-67
2022/03/07 14:44:22;;;;;;;5.47;1.50;;;;;;;;;;5069267;28;20269;-67
2022/03/07 14:46:49;;;;;;;3.70;1.50;;;;;;;;;;5069836;28;20216;-67
2022/03/07 14:49:16;;;;;;;4.77;1.50;;;;;;;;;;5068631;28;20669;-67
2022/03/07 14:51:42;;;;;;;4.57;0.93;;;;;;;;;;5069642;28;20426;-67
2022/03/07 14:54:09;;;;;;;7.30;1.13;;;;;;;;;;5069612;28;20439;-67
2022/03/07 14:56:38;;;;;;;5.27;1.57;;;;;;;;;;5068887;28;20424;-67
2022/03/07 14:59:06;;;;;;;6.87;1.47;;;;;;;;;;5068115;28;20240;-67
2022/03/07 15:01:34;;;;;;;4.60;1.67;;;;;;;;;;5068225;28;20478;-67
2022/03/07 15:04:02;;;;;;;3.23;1.03;;;;;;;;;;5067953;28;20431;-66
2022/03/07 15:06:30;;;;;;;4.10;1.20;;;;;;;;;;5069392;28;20205;-67
2022/03/07 15:08:57;;;;;;;3.57;1.10;;;;;;;;;;5045328;28;20277;-67
2022/03/07 15:11:23;;;;;;;4.80;1.00;;;;;;;;;;5029627;28;20195;-67
2022/03/07 15:13:51;;;;;;;3.70;0.90;;;;;;;;;;5029398;28;20195;-67